Time;durP1;ratioP1;P1;durP2;ratioP2;P2;SDS_P1;SDS_P2;PMS_P1;PMS_P2;Temp;Humidity;BMP_temperature;BMP_pressure;BME280_temperature;BME280_humidity;BME280_pressure;Samples;Min_cycle;Max_cycle;Signal;HPM_P1;HPM_P2
2021/12/25 00:01:40;;;;;;;7.80;2.22;;;;;;;;;;5073675;28;20049;-68
2021/12/25 00:04:07;;;;;;;6.40;2.10;;;;;;;;;;5076578;28;20056;-66
2021/12/25 00:06:33;;;;;;;5.43;2.33;;;;;;;;;;5077430;28;20061;-68
2021/12/25 00:08:59;;;;;;;6.82;2.15;;;;;;;;;;5060787;28;20052;-68
2021/12/25 00:11:25;;;;;;;4.72;1.98;;;;;;;;;;5078043;28;20044;-68
2021/12/25 00:13:51;;;;;;;9.45;2.10;;;;;;;;;;5063331;28;20029;-67
2021/12/25 00:16:17;;;;;;;6.68;2.40;;;;;;;;;;5058468;28;20018;-67
2021/12/25 00:18:43;;;;;;;3.55;1.88;;;;;;;;;;5041656;28;20080;-67
2021/12/25 00:21:09;;;;;;;7.07;2.08;;;;;;;;;;5057135;28;20044;-67
2021/12/25 00:23:36;;;;;;;6.57;1.80;;;;;;;;;;5056829;28;20065;-67
2021/12/25 00:26:26;;;;;;;3.95;2.00;;;;;;;;;;5057253;28;20049;-66
2021/12/25 00:29:01;;;;;;;8.55;2.20;;;;;;;;;;5057914;28;20067;-68
2021/12/25 00:31:43;;;;;;;7.00;1.75;;;;;;;;;;5059702;28;20102;-67
2021/12/25 00:34:10;;;;;;;3.28;1.45;;;;;;;;;;5075054;28;20053;-67
2021/12/25 00:36:36;;;;;;;8.88;1.80;;;;;;;;;;5076377;28;20053;-66
2021/12/25 00:39:03;;;;;;;4.38;1.63;;;;;;;;;;5072086;28;20069;-65
2021/12/25 00:41:32;;;;;;;8.13;1.95;;;;;;;;;;5056313;28;20026;-66
2021/12/25 00:43:58;;;;;;;5.07;1.85;;;;;;;;;;5039941;28;20121;-66
2021/12/25 00:46:24;;;;;;;3.88;1.70;;;;;;;;;;5056766;28;20045;-67
2021/12/25 00:48:50;;;;;;;9.07;2.75;;;;;;;;;;5057243;28;20029;-67
2021/12/25 00:51:16;;;;;;;6.18;1.60;;;;;;;;;;5055994;28;20040;-67
2021/12/25 00:53:42;;;;;;;3.78;1.70;;;;;;;;;;5057563;28;20051;-67
2021/12/25 00:56:09;;;;;;;7.50;1.90;;;;;;;;;;5055661;28;20049;-66
2021/12/25 00:58:35;;;;;;;6.28;1.50;;;;;;;;;;5056470;28;20049;-67
2021/12/25 01:01:01;;;;;;;5.03;1.50;;;;;;;;;;5054989;28;20050;-66
2021/12/25 01:03:27;;;;;;;5.38;1.65;;;;;;;;;;5055010;28;20041;-67
2021/12/25 01:05:53;;;;;;;4.95;1.50;;;;;;;;;;5055437;28;20072;-66
2021/12/25 01:08:19;;;;;;;7.20;1.73;;;;;;;;;;5039112;28;20042;-67
2021/12/25 01:10:45;;;;;;;7.10;1.75;;;;;;;;;;5055587;28;20085;-66
2021/12/25 01:13:22;;;;;;;5.20;1.70;;;;;;;;;;5055399;28;20045;-67
2021/12/25 01:26:30;;;;;;;7.35;1.70;;;;;;;;;;5055295;28;20049;-66
2021/12/25 01:37:08;;;;;;;;;;;;;;;;;;5055410;28;20060;-66
2021/12/25 01:39:44;;;;;;;5.03;1.50;;;;;;;;;;5054495;28;19929;-66
2021/12/25 01:47:47;;;;;;;6.47;2.10;;;;;;;;;;5056084;28;20053;-65
2021/12/25 01:50:14;;;;;;;3.80;1.35;;;;;;;;;;5037997;28;20056;-66
2021/12/25 01:52:40;;;;;;;4.90;1.40;;;;;;;;;;5053788;28;20071;-66
2021/12/25 01:55:11;;;;;;;3.95;1.58;;;;;;;;;;5053126;28;20116;-65
2021/12/25 01:57:38;;;;;;;5.50;1.60;;;;;;;;;;5053526;28;20049;-65
2021/12/25 02:00:06;;;;;;;6.45;1.58;;;;;;;;;;5037076;28;20038;-66
2021/12/25 02:02:32;;;;;;;4.38;1.73;;;;;;;;;;5037897;28;20549;-66
2021/12/25 02:04:58;;;;;;;4.47;1.35;;;;;;;;;;5055316;28;20045;-65
2021/12/25 02:07:24;;;;;;;2.10;1.10;;;;;;;;;;5054706;28;20041;-66
2021/12/25 02:09:50;;;;;;;7.05;1.40;;;;;;;;;;5053851;28;20038;-65
2021/12/25 02:12:16;;;;;;;6.32;1.30;;;;;;;;;;5052748;28;20026;-65
2021/12/25 02:14:43;;;;;;;3.35;1.13;;;;;;;;;;5052967;28;20041;-66
2021/12/25 02:17:26;;;;;;;4.15;1.20;;;;;;;;;;5034195;28;20052;-66
2021/12/25 02:20:09;;;;;;;2.55;1.15;;;;;;;;;;5051548;28;20064;-66
2021/12/25 02:22:36;;;;;;;5.22;1.27;;;;;;;;;;5051605;28;20510;-66
2021/12/25 02:25:02;;;;;;;3.30;1.30;;;;;;;;;;5050980;28;20049;-66
2021/12/25 02:27:28;;;;;;;5.00;1.23;;;;;;;;;;5051908;28;20045;-66
2021/12/25 02:29:55;;;;;;;3.55;1.38;;;;;;;;;;5055035;28;20037;-65
2021/12/25 02:32:21;;;;;;;5.75;1.45;;;;;;;;;;5055428;28;20504;-66
2021/12/25 02:34:47;;;;;;;5.45;1.08;;;;;;;;;;5052721;28;20045;-66
2021/12/25 02:37:13;;;;;;;8.15;1.48;;;;;;;;;;5053121;28;20060;-66
2021/12/25 02:39:39;;;;;;;6.88;1.40;;;;;;;;;;5053800;28;20049;-65
2021/12/25 02:42:05;;;;;;;5.45;1.05;;;;;;;;;;5054647;28;20067;-66
2021/12/25 02:44:31;;;;;;;5.00;1.08;;;;;;;;;;5054394;28;20098;-66
2021/12/25 02:47:05;;;;;;;3.63;1.20;;;;;;;;;;5053842;28;20574;-65
2021/12/25 02:49:31;;;;;;;4.47;0.98;;;;;;;;;;5053909;28;20507;-66
2021/12/25 02:51:57;;;;;;;4.18;1.00;;;;;;;;;;5054782;28;20076;-65
2021/12/25 02:54:23;;;;;;;4.53;1.05;;;;;;;;;;5052455;28;20034;-65
2021/12/25 02:56:49;;;;;;;2.60;1.50;;;;;;;;;;5033667;28;20046;-65
2021/12/25 02:59:15;;;;;;;2.97;0.98;;;;;;;;;;5050371;28;20076;-66
2021/12/25 03:01:41;;;;;;;3.92;1.08;;;;;;;;;;5052089;28;20049;-66
2021/12/25 03:04:07;;;;;;;3.30;0.93;;;;;;;;;;5053025;28;20067;-65
2021/12/25 03:06:38;;;;;;;8.63;1.55;;;;;;;;;;5052030;28;20065;-65
2021/12/25 03:09:05;;;;;;;4.93;1.00;;;;;;;;;;5034736;28;20048;-67
2021/12/25 03:11:31;;;;;;;2.13;0.93;;;;;;;;;;5051132;28;20060;-65
2021/12/25 03:14:13;;;;;;;3.88;1.05;;;;;;;;;;5050373;28;20053;-65
2021/12/25 03:16:40;;;;;;;4.70;0.98;;;;;;;;;;5032399;28;20045;-65
2021/12/25 03:19:19;;;;;;;2.20;0.80;;;;;;;;;;5049152;28;20069;-66
2021/12/25 03:21:45;;;;;;;3.70;0.90;;;;;;;;;;5033293;28;20057;-65
2021/12/25 03:24:11;;;;;;;3.83;0.93;;;;;;;;;;5049324;28;20077;-65
2021/12/25 03:26:37;;;;;;;4.35;0.93;;;;;;;;;;5033509;28;20091;-65
2021/12/25 03:29:04;;;;;;;3.58;0.65;;;;;;;;;;5049220;28;20054;-65
2021/12/25 03:31:31;;;;;;;1.80;1.00;;;;;;;;;;5050407;28;20456;-65
2021/12/25 03:33:57;;;;;;;3.85;0.85;;;;;;;;;;5048421;28;20067;-65
2021/12/25 03:36:23;;;;;;;2.78;0.80;;;;;;;;;;5049102;28;20050;-65
2021/12/25 03:38:50;;;;;;;1.65;0.75;;;;;;;;;;5048701;28;20050;-65
2021/12/25 03:41:18;;;;;;;0.93;0.60;;;;;;;;;;5033079;28;20071;-65
2021/12/25 03:43:45;;;;;;;2.40;0.88;;;;;;;;;;5049292;28;20052;-65
2021/12/25 03:46:12;;;;;;;4.05;0.73;;;;;;;;;;5048494;28;20041;-65
2021/12/25 03:49:01;;;;;;;4.90;1.58;;;;;;;;;;5048967;28;20045;-65
2021/12/25 03:59:47;;;;;;;1.45;0.60;;;;;;;;;;5047520;28;20415;-65
2021/12/25 04:02:24;;;;;;;3.55;0.70;;;;;;;;;;5045636;28;20054;-65
2021/12/25 04:04:51;;;;;;;3.47;0.70;;;;;;;;;;5046527;28;20046;-66
2021/12/25 04:08:05;;;;;;;2.55;0.70;;;;;;;;;;5045450;28;20163;-64
2021/12/25 04:10:04;;;;;;;1.23;0.55;;;;;;;;;;5035348;28;20073;-65
2021/12/25 04:12:30;;;;;;;1.15;0.70;;;;;;;;;;5027416;28;20045;-65
2021/12/25 04:14:56;;;;;;;2.45;1.10;;;;;;;;;;5045073;28;20052;-65
2021/12/25 04:17:22;;;;;;;1.48;0.70;;;;;;;;;;5044607;28;20045;-65
2021/12/25 04:19:48;;;;;;;1.75;0.60;;;;;;;;;;5028538;28;20064;-65
2021/12/25 04:22:19;;;;;;;2.67;0.90;;;;;;;;;;5044077;28;20041;-65
2021/12/25 04:24:47;;;;;;;1.35;0.68;;;;;;;;;;5044693;28;20046;-65
2021/12/25 04:27:16;;;;;;;2.40;0.73;;;;;;;;;;5044417;28;20480;-65
2021/12/25 05:02:34;;;;;;;3.80;0.90;;;;;;;;;;5042738;28;20049;-65
2021/12/25 05:05:03;;;;;;;2.60;0.82;;;;;;;;;;5042651;28;20056;-64
2021/12/25 05:07:29;;;;;;;;;;;;;;;;;;5043560;28;20056;-65
2021/12/25 05:09:57;;;;;;;4.75;0.90;;;;;;;;;;5042935;28;20427;-66
2021/12/25 05:12:23;;;;;;;1.83;0.70;;;;;;;;;;5042831;28;20393;-65
2021/12/25 05:14:48;;;;;;;1.00;0.60;;;;;;;;;;5044951;28;20104;-65
2021/12/25 05:17:14;;;;;;;1.55;0.93;;;;;;;;;;5044391;28;20037;-65
2021/12/25 05:19:40;;;;;;;2.63;0.90;;;;;;;;;;5027708;28;20045;-64
2021/12/25 05:22:06;;;;;;;3.00;0.90;;;;;;;;;;5045085;28;20574;-64
2021/12/25 05:24:34;;;;;;;2.53;1.17;;;;;;;;;;5045477;28;20053;-64
2021/12/25 05:27:00;;;;;;;4.85;1.45;;;;;;;;;;5044863;28;20054;-64
2021/12/25 05:29:29;;;;;;;1.58;1.00;;;;;;;;;;5046550;28;20088;-65
2021/12/25 05:31:55;;;;;;;4.40;1.15;;;;;;;;;;5047083;28;20483;-64
2021/12/25 05:34:22;;;;;;;2.92;0.90;;;;;;;;;;5045665;28;20045;-64
2021/12/25 05:36:48;;;;;;;3.53;0.90;;;;;;;;;;5043927;28;20049;-64
2021/12/25 05:39:15;;;;;;;1.67;0.80;;;;;;;;;;5042666;28;20499;-64
2021/12/25 05:41:41;;;;;;;2.30;1.00;;;;;;;;;;5026719;28;20049;-64
2021/12/25 05:44:07;;;;;;;2.85;0.98;;;;;;;;;;5045230;28;20092;-64
2021/12/25 05:46:33;;;;;;;2.72;0.80;;;;;;;;;;5044007;28;20045;-65
2021/12/25 05:48:58;;;;;;;1.35;0.80;;;;;;;;;;5044575;28;20049;-65
2021/12/25 05:51:24;;;;;;;1.77;0.70;;;;;;;;;;5043842;28;20056;-64
2021/12/25 05:53:50;;;;;;;1.40;0.70;;;;;;;;;;5043798;28;20057;-64
2021/12/25 05:56:17;;;;;;;2.95;0.65;;;;;;;;;;5025589;28;20550;-64
2021/12/25 05:58:43;;;;;;;1.10;0.60;;;;;;;;;;5043588;28;20049;-64
2021/12/25 06:01:09;;;;;;;0.85;0.60;;;;;;;;;;5043099;28;20091;-64
2021/12/25 06:03:35;;;;;;;2.75;0.70;;;;;;;;;;5048537;28;20073;-64
2021/12/25 06:06:01;;;;;;;1.40;0.80;;;;;;;;;;5049870;28;20048;-64
2021/12/25 06:08:28;;;;;;;0.82;0.60;;;;;;;;;;5049210;28;20041;-64
2021/12/25 06:10:54;;;;;;;4.05;0.80;;;;;;;;;;5031879;28;20045;-65
2021/12/25 06:13:21;;;;;;;0.77;0.52;;;;;;;;;;5047920;28;20105;-64
2021/12/25 06:15:48;;;;;;;2.92;0.70;;;;;;;;;;5047922;28;20057;-64
2021/12/25 06:18:14;;;;;;;1.80;0.60;;;;;;;;;;5030684;28;20049;-64
2021/12/25 06:20:40;;;;;;;1.48;0.55;;;;;;;;;;5048705;28;20037;-64
2021/12/25 06:23:07;;;;;;;1.60;1.08;;;;;;;;;;5031345;28;20057;-64
2021/12/25 06:25:33;;;;;;;2.67;0.65;;;;;;;;;;5047933;28;20109;-64
2021/12/25 06:27:59;;;;;;;1.20;0.55;;;;;;;;;;5047280;28;20111;-64
2021/12/25 06:30:28;;;;;;;;;;;;;;;;;;5048587;28;20054;-64
2021/12/25 06:32:55;;;;;;;3.17;0.50;;;;;;;;;;5048947;28;19921;-64
2021/12/25 06:35:21;;;;;;;2.72;0.50;;;;;;;;;;5047982;28;20098;-64
2021/12/25 06:37:47;;;;;;;1.38;0.52;;;;;;;;;;5047531;28;20068;-64
2021/12/25 06:40:17;;;;;;;2.85;0.63;;;;;;;;;;5030626;28;20400;-64
2021/12/25 06:42:43;;;;;;;3.45;0.47;;;;;;;;;;5047107;28;20073;-64
2021/12/25 06:45:09;;;;;;;14.43;1.30;;;;;;;;;;5048221;28;20408;-65
2021/12/25 06:47:35;;;;;;;2.80;0.60;;;;;;;;;;5030903;28;20046;-64
2021/12/25 06:50:01;;;;;;;2.50;0.63;;;;;;;;;;5047558;28;20400;-64
2021/12/25 06:52:27;;;;;;;1.38;0.63;;;;;;;;;;5046089;28;20045;-64
2021/12/25 06:54:53;;;;;;;3.50;0.50;;;;;;;;;;5029827;28;20045;-64
2021/12/25 06:57:19;;;;;;;6.18;1.23;;;;;;;;;;5044530;28;20056;-63
2021/12/25 06:59:45;;;;;;;4.20;0.88;;;;;;;;;;5045948;28;20100;-63
2021/12/25 07:02:12;;;;;;;3.67;0.63;;;;;;;;;;5046929;28;20096;-63
2021/12/25 07:04:38;;;;;;;4.18;0.50;;;;;;;;;;5045386;28;20455;-64
2021/12/25 07:07:04;;;;;;;1.27;0.40;;;;;;;;;;5046986;28;20124;-63
2021/12/25 07:09:30;;;;;;;1.55;0.40;;;;;;;;;;5045377;28;20049;-63
2021/12/25 07:11:57;;;;;;;2.78;0.63;;;;;;;;;;5029644;28;20149;-64
2021/12/25 07:14:23;;;;;;;3.05;0.63;;;;;;;;;;5045121;28;20112;-64
2021/12/25 07:16:49;;;;;;;1.75;0.40;;;;;;;;;;5046501;28;20049;-64
2021/12/25 07:19:16;;;;;;;24.95;2.10;;;;;;;;;;5044424;28;20057;-64
2021/12/25 07:21:42;;;;;;;1.92;0.60;;;;;;;;;;5045768;28;20495;-64
2021/12/25 07:24:09;;;;;;;10.95;1.40;;;;;;;;;;5045020;28;20069;-64
2021/12/25 07:26:36;;;;;;;7.18;1.02;;;;;;;;;;5046646;28;20053;-64
2021/12/25 07:29:02;;;;;;;5.03;0.70;;;;;;;;;;5045119;28;20057;-64
2021/12/25 07:31:28;;;;;;;4.78;0.80;;;;;;;;;;5046756;28;20060;-64
2021/12/25 07:33:54;;;;;;;64.00;10.43;;;;;;;;;;5028677;28;20045;-64
2021/12/25 07:36:20;;;;;;;10.80;1.95;;;;;;;;;;5046358;28;20054;-64
2021/12/25 07:38:46;;;;;;;3.03;1.05;;;;;;;;;;5046322;28;20053;-64
2021/12/25 07:41:13;;;;;;;7.18;1.95;;;;;;;;;;5059678;28;20078;-64
2021/12/25 07:43:39;;;;;;;41.55;5.57;;;;;;;;;;5071344;28;20052;-64
2021/12/25 07:46:05;;;;;;;12.75;2.85;;;;;;;;;;5075587;28;20052;-64
2021/12/25 07:48:33;;;;;;;17.60;3.33;;;;;;;;;;5062627;28;20040;-63
2021/12/25 07:51:02;;;;;;;17.83;3.53;;;;;;;;;;5071775;28;20053;-64
2021/12/25 07:53:28;;;;;;;;;;;;;;;;;;5070565;28;20052;-63
2021/12/25 07:55:54;;;;;;;2.60;0.77;;;;;;;;;;5073141;28;19921;-64
2021/12/25 07:58:20;;;;;;;3.33;0.80;;;;;;;;;;5070413;28;20077;-64
2021/12/25 08:00:46;;;;;;;4.05;1.20;;;;;;;;;;5073506;28;20102;-64
2021/12/25 08:03:13;;;;;;;44.25;6.60;;;;;;;;;;5072656;28;20056;-64
2021/12/25 08:05:39;;;;;;;335.40;53.00;;;;;;;;;;5073530;28;20052;-63
2021/12/25 08:08:07;;;;;;;140.07;22.98;;;;;;;;;;5074000;28;20053;-63
2021/12/25 08:10:33;;;;;;;39.65;7.45;;;;;;;;;;5075401;28;20156;-63
2021/12/25 08:12:59;;;;;;;26.02;6.05;;;;;;;;;;5060649;28;20103;-64
2021/12/25 08:15:27;;;;;;;11.45;2.78;;;;;;;;;;5057683;28;20037;-63
2021/12/25 08:17:54;;;;;;;11.68;2.10;;;;;;;;;;5058442;28;20033;-66
2021/12/25 08:20:20;;;;;;;8.13;1.60;;;;;;;;;;5078879;28;20047;-65
2021/12/25 08:22:46;;;;;;;6.75;1.33;;;;;;;;;;5078448;28;20056;-64
2021/12/25 08:25:14;;;;;;;4.43;1.38;;;;;;;;;;5058020;28;20045;-63
2021/12/25 08:27:41;;;;;;;2.47;1.02;;;;;;;;;;5060077;28;20082;-64
2021/12/25 08:30:10;;;;;;;4.32;0.98;;;;;;;;;;5077513;28;20110;-65
2021/12/25 08:32:36;;;;;;;3.67;0.93;;;;;;;;;;5061056;28;20044;-64
2021/12/25 08:35:02;;;;;;;8.57;1.40;;;;;;;;;;5076617;28;20025;-64
2021/12/25 08:37:28;;;;;;;11.98;2.60;;;;;;;;;;5070131;28;20051;-63
2021/12/25 08:39:55;;;;;;;6.43;1.55;;;;;;;;;;5066839;28;20049;-65
2021/12/25 08:42:21;;;;;;;8.95;2.00;;;;;;;;;;5066663;28;20041;-63
2021/12/25 08:47:27;;;;;;;18.52;2.63;;;;;;;;;;5077327;28;20056;-64
2021/12/25 08:49:53;;;;;;;7.03;1.15;;;;;;;;;;5077181;28;20041;-65
2021/12/25 08:52:20;;;;;;;1.60;0.75;;;;;;;;;;5075476;28;20045;-64
2021/12/25 08:54:48;;;;;;;6.22;1.30;;;;;;;;;;5076134;28;20068;-65
2021/12/25 08:57:14;;;;;;;5.18;1.45;;;;;;;;;;5076406;28;20076;-64
2021/12/25 08:59:40;;;;;;;4.10;1.05;;;;;;;;;;5077405;28;20024;-65
2021/12/25 09:02:08;;;;;;;8.35;3.13;;;;;;;;;;5074607;28;20053;-64
2021/12/25 09:04:35;;;;;;;27.90;3.92;;;;;;;;;;5075175;28;20044;-64
2021/12/25 09:07:03;;;;;;;60.88;10.23;;;;;;;;;;5075269;28;20029;-64
2021/12/25 09:09:29;;;;;;;28.52;4.25;;;;;;;;;;5074268;28;20503;-63
2021/12/25 09:11:55;;;;;;;72.88;11.07;;;;;;;;;;5072689;28;20059;-64
2021/12/25 09:14:21;;;;;;;38.88;5.13;;;;;;;;;;5073056;28;20067;-64
2021/12/25 09:16:47;;;;;;;135.32;19.33;;;;;;;;;;5070902;28;20128;-64
2021/12/25 09:19:13;;;;;;;35.70;7.20;;;;;;;;;;5072969;28;20048;-63
2021/12/25 09:21:39;;;;;;;14.35;2.72;;;;;;;;;;5082639;28;20053;-66
2021/12/25 09:24:05;;;;;;;8.20;1.33;;;;;;;;;;5069396;28;20052;-64
2021/12/25 09:26:31;;;;;;;4.53;1.70;;;;;;;;;;5069726;28;20037;-63
2021/12/25 09:28:57;;;;;;;7.32;2.70;;;;;;;;;;5072137;28;20067;-63
2021/12/25 09:31:23;;;;;;;7.25;2.00;;;;;;;;;;5045209;28;20052;-64
2021/12/25 09:33:49;;;;;;;16.50;4.07;;;;;;;;;;5076782;28;20041;-63
2021/12/25 09:36:15;;;;;;;82.25;13.55;;;;;;;;;;5072351;28;20049;-64
2021/12/25 09:38:42;;;;;;;46.95;9.00;;;;;;;;;;5073785;28;20076;-64
2021/12/25 09:41:07;;;;;;;153.05;23.70;;;;;;;;;;5073564;28;20044;-64
2021/12/25 09:43:34;;;;;;;17.58;5.50;;;;;;;;;;5075464;28;20085;-66
2021/12/25 09:46:00;;;;;;;53.25;7.20;;;;;;;;;;5076651;28;20132;-66
2021/12/25 09:48:26;;;;;;;22.02;4.10;;;;;;;;;;5077603;28;20029;-66
2021/12/25 09:50:53;;;;;;;30.80;3.35;;;;;;;;;;5077094;28;20060;-66
2021/12/25 09:53:19;;;;;;;14.02;3.33;;;;;;;;;;5074091;28;20074;-62
2021/12/25 09:55:46;;;;;;;24.15;4.13;;;;;;;;;;5054625;28;20048;-64
2021/12/25 09:58:12;;;;;;;15.35;2.45;;;;;;;;;;5073538;28;20045;-62
2021/12/25 10:00:43;;;;;;;7.32;1.60;;;;;;;;;;5075630;28;20076;-63
2021/12/25 10:03:09;;;;;;;6.25;1.33;;;;;;;;;;5076412;28;20033;-64
2021/12/25 10:05:45;;;;;;;6.55;1.55;;;;;;;;;;5076827;28;20065;-65
2021/12/25 10:08:15;;;;;;;2.35;1.17;;;;;;;;;;5072928;28;20070;-66
2021/12/25 10:10:44;;;;;;;4.55;1.50;;;;;;;;;;5077123;28;20025;-64
2021/12/25 10:13:19;;;;;;;8.25;1.38;;;;;;;;;;5058364;28;20037;-64
2021/12/25 10:15:45;;;;;;;13.75;2.40;;;;;;;;;;5059126;28;20067;-64
2021/12/25 10:18:11;;;;;;;51.13;9.05;;;;;;;;;;5077469;28;20025;-63
2021/12/25 10:20:37;;;;;;;19.08;3.00;;;;;;;;;;5075981;28;20107;-63
2021/12/25 10:23:13;;;;;;;6.22;1.23;;;;;;;;;;5053188;28;20041;-63
2021/12/25 10:25:46;;;;;;;3.70;1.00;;;;;;;;;;5072371;28;20063;-63
2021/12/25 10:28:13;;;;;;;3.92;1.10;;;;;;;;;;5066515;28;20053;-65
2021/12/25 10:30:45;;;;;;;4.65;1.00;;;;;;;;;;5076169;28;20055;-66
2021/12/25 10:33:30;;;;;;;2.35;0.80;;;;;;;;;;5076387;28;20053;-67
2021/12/25 10:35:57;;;;;;;2.78;0.90;;;;;;;;;;5072719;28;20049;-65
2021/12/25 10:38:24;;;;;;;7.10;1.50;;;;;;;;;;5077342;28;20076;-64
2021/12/25 10:40:50;;;;;;;5.13;1.00;;;;;;;;;;5076601;28;20045;-66
2021/12/25 10:43:21;;;;;;;7.00;1.60;;;;;;;;;;5075181;28;20073;-66
2021/12/25 10:46:01;;;;;;;2.17;1.00;;;;;;;;;;5057948;28;20046;-66
2021/12/25 10:48:28;;;;;;;14.18;1.90;;;;;;;;;;5077092;28;20039;-66
2021/12/25 10:50:54;;;;;;;5.60;0.90;;;;;;;;;;5079478;28;20059;-66
2021/12/25 10:53:25;;;;;;;23.55;3.38;;;;;;;;;;5079486;28;20040;-66
2021/12/25 10:55:51;;;;;;;7.22;1.52;;;;;;;;;;5081034;28;20077;-67
2021/12/25 10:58:18;;;;;;;15.05;2.95;;;;;;;;;;5080022;28;20055;-67
2021/12/25 11:00:48;;;;;;;8.18;1.33;;;;;;;;;;5080194;28;20028;-66
2021/12/25 11:03:14;;;;;;;8.50;1.63;;;;;;;;;;5080805;28;20080;-66
2021/12/25 11:05:45;;;;;;;4.10;1.30;;;;;;;;;;5079818;28;20029;-66
2021/12/25 11:08:38;;;;;;;3.00;0.90;;;;;;;;;;5079141;28;20035;-66
2021/12/25 11:11:12;;;;;;;17.20;3.13;;;;;;;;;;5076036;28;20047;-67
2021/12/25 11:13:48;;;;;;;32.33;4.93;;;;;;;;;;5076731;28;20053;-65
2021/12/25 11:16:15;;;;;;;295.73;51.17;;;;;;;;;;5070121;28;20080;-64
2021/12/25 11:19:14;;;;;;;127.25;21.98;;;;;;;;;;5069878;28;20038;-65
2021/12/25 11:21:49;;;;;;;63.60;13.93;;;;;;;;;;5065878;28;20132;-65
2021/12/25 11:24:17;;;;;;;193.00;41.15;;;;;;;;;;5075138;28;20058;-65
2021/12/25 11:26:44;;;;;;;77.43;12.60;;;;;;;;;;5074292;28;20060;-66
2021/12/25 11:29:12;;;;;;;9.43;1.70;;;;;;;;;;5086993;28;20046;-66
2021/12/25 11:31:39;;;;;;;11.65;2.92;;;;;;;;;;5062099;28;20046;-65
2021/12/25 11:34:05;;;;;;;9.20;1.85;;;;;;;;;;5069911;28;20037;-67
2021/12/25 11:36:32;;;;;;;49.95;7.53;;;;;;;;;;5062302;28;20049;-66
2021/12/25 11:38:58;;;;;;;23.20;5.05;;;;;;;;;;5076494;28;20052;-66
2021/12/25 11:41:25;;;;;;;9.25;2.00;;;;;;;;;;5076135;28;20163;-66
2021/12/25 11:43:51;;;;;;;49.88;7.82;;;;;;;;;;5074149;28;20062;-68
2021/12/25 11:46:18;;;;;;;11.23;2.35;;;;;;;;;;5072915;28;20040;-67
2021/12/25 11:48:45;;;;;;;23.92;4.28;;;;;;;;;;5076484;28;20041;-65
2021/12/25 11:51:29;;;;;;;12.68;2.33;;;;;;;;;;5074263;28;20438;-66
2021/12/25 11:56:44;;;;;;;12.80;2.42;;;;;;;;;;5076778;28;20063;-67
2021/12/25 11:59:12;;;;;;;9.40;2.00;;;;;;;;;;5073046;28;20094;-66
2021/12/25 12:01:42;;;;;;;13.10;2.55;;;;;;;;;;5067589;28;20033;-67
2021/12/25 12:04:11;;;;;;;27.50;4.75;;;;;;;;;;5067270;28;20035;-67
2021/12/25 12:06:46;;;;;;;45.00;9.40;;;;;;;;;;5074027;28;20045;-68
2021/12/25 12:09:32;;;;;;;10.45;2.40;;;;;;;;;;5072084;28;20045;-67
2021/12/25 12:12:04;;;;;;;10.35;2.45;;;;;;;;;;5074042;28;20025;-67
2021/12/25 12:14:30;;;;;;;11.48;2.08;;;;;;;;;;5069229;28;20097;-67
2021/12/25 12:16:58;;;;;;;10.00;2.22;;;;;;;;;;5060616;28;20045;-67
2021/12/25 12:19:38;;;;;;;18.05;3.25;;;;;;;;;;5077501;28;20180;-66
2021/12/25 12:22:22;;;;;;;10.50;1.40;;;;;;;;;;5075854;28;20080;-66
2021/12/25 12:27:40;;;;;;;5.60;1.00;;;;;;;;;;5073270;28;20060;-67
2021/12/25 12:30:12;;;;;;;10.10;2.20;;;;;;;;;;5075081;28;20037;-67
2021/12/25 12:32:43;;;;;;;7.10;2.15;;;;;;;;;;5076378;28;20037;-65
2021/12/25 12:35:28;;;;;;;5.95;0.98;;;;;;;;;;5076692;28;20040;-66
2021/12/25 12:37:54;;;;;;;4.85;1.25;;;;;;;;;;5074964;28;20048;-66
2021/12/25 12:40:27;;;;;;;5.32;0.85;;;;;;;;;;5075231;28;20039;-67
2021/12/25 12:42:57;;;;;;;6.30;1.20;;;;;;;;;;5076595;28;20035;-66
2021/12/25 12:45:31;;;;;;;6.18;1.00;;;;;;;;;;5076050;28;20033;-67
2021/12/25 12:48:18;;;;;;;30.25;3.85;;;;;;;;;;5072171;28;20040;-66
2021/12/25 12:50:46;;;;;;;3.47;0.90;;;;;;;;;;5073661;28;20119;-66
2021/12/25 12:53:12;;;;;;;4.13;0.93;;;;;;;;;;5070496;28;20041;-66
2021/12/25 12:55:39;;;;;;;4.35;1.02;;;;;;;;;;5074082;28;20538;-67
2021/12/25 12:58:20;;;;;;;2.67;0.80;;;;;;;;;;5071551;28;20068;-67
2021/12/25 13:00:48;;;;;;;6.05;1.13;;;;;;;;;;5075371;28;20040;-68
2021/12/25 13:03:14;;;;;;;11.23;1.80;;;;;;;;;;5074682;28;20055;-66
2021/12/25 13:05:41;;;;;;;6.22;1.40;;;;;;;;;;5074011;28;20042;-65
2021/12/25 13:08:10;;;;;;;26.58;3.70;;;;;;;;;;5074845;28;20032;-66
2021/12/25 13:10:42;;;;;;;13.18;2.00;;;;;;;;;;5070205;28;20064;-66
2021/12/25 13:13:09;;;;;;;15.77;2.35;;;;;;;;;;5065752;28;20067;-66
2021/12/25 13:15:35;;;;;;;11.05;2.35;;;;;;;;;;5071124;28;20098;-66
2021/12/25 13:18:04;;;;;;;5.85;1.15;;;;;;;;;;5044898;28;20072;-65
2021/12/25 13:20:45;;;;;;;5.03;1.45;;;;;;;;;;5070508;28;20109;-65
2021/12/25 13:23:31;;;;;;;6.28;1.38;;;;;;;;;;5064950;28;20124;-65
2021/12/25 13:26:05;;;;;;;5.38;1.15;;;;;;;;;;5069803;28;20037;-66
2021/12/25 13:28:36;;;;;;;7.88;1.60;;;;;;;;;;5069673;28;20048;-66
2021/12/25 13:31:08;;;;;;;3.72;1.10;;;;;;;;;;5067213;28;20056;-65
2021/12/25 13:33:35;;;;;;;2.53;1.02;;;;;;;;;;5065146;28;20075;-66
2021/12/25 13:36:06;;;;;;;5.35;1.45;;;;;;;;;;5064125;28;20065;-65
2021/12/25 13:38:49;;;;;;;2.65;0.90;;;;;;;;;;5060568;28;20049;-65
2021/12/25 13:41:16;;;;;;;3.22;1.02;;;;;;;;;;5064468;28;20045;-66
2021/12/25 13:43:42;;;;;;;10.02;2.05;;;;;;;;;;5065166;28;20076;-65
2021/12/25 13:46:08;;;;;;;31.63;6.45;;;;;;;;;;5065711;28;20063;-64
2021/12/25 13:48:38;;;;;;;12.35;2.47;;;;;;;;;;5070512;28;20052;-65
2021/12/25 13:51:04;;;;;;;9.05;1.95;;;;;;;;;;5074498;28;20056;-66
2021/12/25 13:53:31;;;;;;;8.90;2.30;;;;;;;;;;5073746;28;20570;-66
2021/12/25 13:55:57;;;;;;;16.48;2.85;;;;;;;;;;5076141;28;20068;-66
2021/12/25 13:58:28;;;;;;;4.07;1.45;;;;;;;;;;5076036;28;20101;-66
2021/12/25 14:00:54;;;;;;;6.13;1.23;;;;;;;;;;5076625;28;20025;-65
2021/12/25 14:03:25;;;;;;;22.48;2.90;;;;;;;;;;5055775;28;20048;-65
2021/12/25 14:05:52;;;;;;;16.08;3.22;;;;;;;;;;5068167;28;20052;-66
2021/12/25 14:08:19;;;;;;;7.70;1.73;;;;;;;;;;5067220;28;20048;-64
2021/12/25 14:10:45;;;;;;;8.25;1.60;;;;;;;;;;5062622;28;20041;-66
2021/12/25 14:13:15;;;;;;;3.83;1.10;;;;;;;;;;5065384;28;20096;-66
2021/12/25 14:15:41;;;;;;;5.10;1.55;;;;;;;;;;5066669;28;20139;-66
2021/12/25 14:18:08;;;;;;;7.30;1.30;;;;;;;;;;5068466;28;20109;-65
2021/12/25 14:20:35;;;;;;;4.88;1.60;;;;;;;;;;5066739;28;20041;-65
2021/12/25 14:23:03;;;;;;;5.63;1.27;;;;;;;;;;5072607;28;20047;-66
2021/12/25 14:25:30;;;;;;;4.15;1.17;;;;;;;;;;5076738;28;20029;-66
2021/12/25 14:28:16;;;;;;;2.47;1.92;;;;;;;;;;5060258;28;20049;-65
2021/12/25 14:31:01;;;;;;;6.32;1.10;;;;;;;;;;5077947;28;20073;-66
2021/12/25 14:33:27;;;;;;;6.22;2.10;;;;;;;;;;5070637;28;20106;-65
2021/12/25 14:35:53;;;;;;;5.03;1.60;;;;;;;;;;5066783;28;20048;-64
2021/12/25 14:38:20;;;;;;;6.55;1.98;;;;;;;;;;5067035;28;20073;-64
2021/12/25 14:40:47;;;;;;;6.40;1.70;;;;;;;;;;5069341;28;20052;-66
2021/12/25 14:43:15;;;;;;;5.05;1.35;;;;;;;;;;5073006;28;20083;-64
2021/12/25 14:45:46;;;;;;;6.00;1.55;;;;;;;;;;5074225;28;20109;-66
2021/12/25 14:48:12;;;;;;;8.05;1.88;;;;;;;;;;5073143;28;20044;-66
2021/12/25 14:50:39;;;;;;;4.32;1.60;;;;;;;;;;5073895;28;20056;-66
2021/12/25 14:53:16;;;;;;;14.48;2.72;;;;;;;;;;5075296;28;20055;-65
2021/12/25 14:55:43;;;;;;;4.75;1.98;;;;;;;;;;5074172;28;20079;-65
2021/12/25 14:58:11;;;;;;;12.75;3.65;;;;;;;;;;5071916;28;20034;-65
2021/12/25 15:00:38;;;;;;;4.03;1.55;;;;;;;;;;5073438;28;20049;-65
2021/12/25 15:03:09;;;;;;;5.53;1.40;;;;;;;;;;5073137;28;20076;-66
2021/12/25 15:05:39;;;;;;;7.03;1.85;;;;;;;;;;5073948;28;20052;-65
2021/12/25 15:08:20;;;;;;;6.82;2.00;;;;;;;;;;5073628;28;20392;-65
2021/12/25 15:10:46;;;;;;;6.07;1.58;;;;;;;;;;5070282;28;20106;-65
2021/12/25 15:13:20;;;;;;;8.93;2.53;;;;;;;;;;5068932;28;20061;-65
2021/12/25 15:15:54;;;;;;;18.27;3.35;;;;;;;;;;5068855;28;20052;-65
2021/12/25 15:18:41;;;;;;;7.07;1.80;;;;;;;;;;5068498;28;20041;-64
2021/12/25 15:21:09;;;;;;;4.35;1.50;;;;;;;;;;5049439;28;20083;-65
2021/12/25 15:23:35;;;;;;;5.93;1.60;;;;;;;;;;5068477;28;20051;-66
2021/12/25 15:26:15;;;;;;;4.07;1.40;;;;;;;;;;5067333;28;20077;-66
2021/12/25 15:28:41;;;;;;;49.78;8.05;;;;;;;;;;5065557;28;20049;-65
2021/12/25 15:31:15;;;;;;;4.15;1.88;;;;;;;;;;5055282;28;20061;-65
2021/12/25 15:33:49;;;;;;;7.10;1.70;;;;;;;;;;5042287;28;20072;-64
2021/12/25 15:36:15;;;;;;;6.25;1.40;;;;;;;;;;5066986;28;20068;-65
2021/12/25 15:38:41;;;;;;;3.83;1.27;;;;;;;;;;5068551;28;20068;-65
2021/12/25 15:41:07;;;;;;;6.90;2.33;;;;;;;;;;5067731;28;20045;-66
2021/12/25 15:43:33;;;;;;;2.20;0.88;;;;;;;;;;5068295;28;20068;-64
2021/12/25 15:46:03;;;;;;;4.53;1.67;;;;;;;;;;5070652;28;20049;-65
2021/12/25 15:48:29;;;;;;;5.07;1.63;;;;;;;;;;5070124;28;20048;-64
2021/12/25 15:50:55;;;;;;;3.95;1.42;;;;;;;;;;5067996;28;20052;-64
2021/12/25 15:53:21;;;;;;;4.90;1.63;;;;;;;;;;5051400;28;20059;-65
2021/12/25 15:55:47;;;;;;;4.15;1.45;;;;;;;;;;5070327;28;20045;-65
2021/12/25 15:58:17;;;;;;;3.05;1.83;;;;;;;;;;5072485;28;20487;-65
2021/12/25 16:00:44;;;;;;;3.70;1.75;;;;;;;;;;5073815;28;20052;-66
2021/12/25 16:03:10;;;;;;;10.68;1.65;;;;;;;;;;5071483;28;20132;-64